sensor_id;sensor_type;location;lat;lon;timestamp;temperature;humidity
6740;DHT22;3407;49.882;10.920;2023-06-22T00:04:52;19.20;1.00
6740;DHT22;3407;49.882;10.920;2023-06-22T00:09:48;19.20;1.00
6740;DHT22;3407;49.882;10.920;2023-06-22T00:14:43;19.20;1.00
6740;DHT22;3407;49.882;10.920;2023-06-22T00:19:39;19.30;1.00
6740;DHT22;3407;49.882;10.920;2023-06-22T00:24:35;19.20;1.00
6740;DHT22;3407;49.882;10.920;2023-06-22T00:29:31;19.00;1.00
6740;DHT22;3407;49.882;10.920;2023-06-22T00:34:26;19.00;1.00
6740;DHT22;3407;49.882;10.920;2023-06-22T00:39:22;18.90;1.00
6740;DHT22;3407;49.882;10.920;2023-06-22T00:44:17;18.90;1.00
6740;DHT22;3407;49.882;10.920;2023-06-22T00:49:13;19.10;1.00
6740;DHT22;3407;49.882;10.920;2023-06-22T00:54:09;19.20;1.00
6740;DHT22;3407;49.882;10.920;2023-06-22T00:59:06;19.30;1.00
6740;DHT22;3407;49.882;10.920;2023-06-22T01:04:02;19.30;1.00
6740;DHT22;3407;49.882;10.920;2023-06-22T01:09:05;19.30;1.90
6740;DHT22;3407;49.882;10.920;2023-06-22T01:14:28;19.20;1.00
6740;DHT22;3407;49.882;10.920;2023-06-22T01:19:43;19.20;1.00
6740;DHT22;3407;49.882;10.920;2023-06-22T01:24:59;19.00;1.00
6740;DHT22;3407;49.882;10.920;2023-06-22T01:30:01;19.00;1.00
6740;DHT22;3407;49.882;10.920;2023-06-22T01:34:58;18.90;1.00
6740;DHT22;3407;49.882;10.920;2023-06-22T01:39:55;19.00;1.00
6740;DHT22;3407;49.882;10.920;2023-06-22T01:44:55;19.10;1.00
6740;DHT22;3407;49.882;10.920;2023-06-22T01:49:51;19.10;1.00
6740;DHT22;3407;49.882;10.920;2023-06-22T01:54:47;18.90;1.00
6740;DHT22;3407;49.882;10.920;2023-06-22T02:00:07;18.90;1.00
6740;DHT22;3407;49.882;10.920;2023-06-22T02:05:07;18.80;1.00
6740;DHT22;3407;49.882;10.920;2023-06-22T02:10:06;18.90;1.00
6740;DHT22;3407;49.882;10.920;2023-06-22T02:15:03;18.90;1.00
6740;DHT22;3407;49.882;10.920;2023-06-22T02:20:02;18.90;1.00
6740;DHT22;3407;49.882;10.920;2023-06-22T02:24:58;19.00;1.00
6740;DHT22;3407;49.882;10.920;2023-06-22T02:29:53;18.80;1.00
6740;DHT22;3407;49.882;10.920;2023-06-22T02:34:49;18.70;1.00
6740;DHT22;3407;49.882;10.920;2023-06-22T02:39:44;18.60;1.00
6740;DHT22;3407;49.882;10.920;2023-06-22T02:44:40;18.70;1.00
6740;DHT22;3407;49.882;10.920;2023-06-22T02:49:35;18.80;9.60
6740;DHT22;3407;49.882;10.920;2023-06-22T02:54:31;19.00;18.20
6740;DHT22;3407;49.882;10.920;2023-06-22T02:59:26;19.20;12.30
6740;DHT22;3407;49.882;10.920;2023-06-22T03:04:22;19.30;13.80
6740;DHT22;3407;49.882;10.920;2023-06-22T03:09:17;19.30;25.50
6740;DHT22;3407;49.882;10.920;2023-06-22T03:14:13;19.20;27.80
6740;DHT22;3407;49.882;10.920;2023-06-22T03:19:09;19.20;35.20
6740;DHT22;3407;49.882;10.920;2023-06-22T03:24:05;19.10;40.80
6740;DHT22;3407;49.882;10.920;2023-06-22T03:29:01;19.00;45.00
6740;DHT22;3407;49.882;10.920;2023-06-22T03:33:56;19.00;51.00
6740;DHT22;3407;49.882;10.920;2023-06-22T03:38:52;18.90;53.30
6740;DHT22;3407;49.882;10.920;2023-06-22T03:43:47;18.70;54.20
6740;DHT22;3407;49.882;10.920;2023-06-22T03:48:43;18.70;59.20
6740;DHT22;3407;49.882;10.920;2023-06-22T03:53:38;18.70;58.00
6740;DHT22;3407;49.882;10.920;2023-06-22T03:58:34;18.70;58.60
6740;DHT22;3407;49.882;10.920;2023-06-22T04:03:30;18.70;52.20
6740;DHT22;3407;49.882;10.920;2023-06-22T04:08:26;18.80;46.40
6740;DHT22;3407;49.882;10.920;2023-06-22T04:13:21;18.90;45.90
6740;DHT22;3407;49.882;10.920;2023-06-22T04:18:17;19.10;52.30
6740;DHT22;3407;49.882;10.920;2023-06-22T04:23:13;19.40;47.90
6740;DHT22;3407;49.882;10.920;2023-06-22T04:28:08;19.60;31.10
6740;DHT22;3407;49.882;10.920;2023-06-22T04:33:07;19.80;24.20
6740;DHT22;3407;49.882;10.920;2023-06-22T04:38:04;20.10;4.90
6740;DHT22;3407;49.882;10.920;2023-06-22T04:43:00;20.40;1.00
6740;DHT22;3407;49.882;10.920;2023-06-22T04:47:57;20.90;1.00
6740;DHT22;3407;49.882;10.920;2023-06-22T04:52:53;21.30;1.00
6740;DHT22;3407;49.882;10.920;2023-06-22T04:57:49;22.00;1.00
6740;DHT22;3407;49.882;10.920;2023-06-22T05:02:45;22.80;1.00
6740;DHT22;3407;49.882;10.920;2023-06-22T05:07:45;23.50;99.90
6740;DHT22;3407;49.882;10.920;2023-06-22T05:12:42;23.80;99.90
6740;DHT22;3407;49.882;10.920;2023-06-22T05:17:38;24.30;98.30
6740;DHT22;3407;49.882;10.920;2023-06-22T05:22:40;25.40;99.90
6740;DHT22;3407;49.882;10.920;2023-06-22T05:27:36;27.20;1.00
6740;DHT22;3407;49.882;10.920;2023-06-22T05:32:36;28.50;99.90
6740;DHT22;3407;49.882;10.920;2023-06-22T05:37:31;28.30;99.90
6740;DHT22;3407;49.882;10.920;2023-06-22T05:42:27;26.80;99.90
6740;DHT22;3407;49.882;10.920;2023-06-22T05:47:22;25.30;1.00
6740;DHT22;3407;49.882;10.920;2023-06-22T05:52:18;24.50;99.90
6740;DHT22;3407;49.882;10.920;2023-06-22T05:57:13;24.50;99.90
6740;DHT22;3407;49.882;10.920;2023-06-22T06:02:09;24.60;1.00
6740;DHT22;3407;49.882;10.920;2023-06-22T06:07:04;24.80;1.00
6740;DHT22;3407;49.882;10.920;2023-06-22T06:12:00;25.10;99.90
6740;DHT22;3407;49.882;10.920;2023-06-22T06:16:58;25.40;99.90
6740;DHT22;3407;49.882;10.920;2023-06-22T06:21:53;25.60;1.00
6740;DHT22;3407;49.882;10.920;2023-06-22T06:26:49;25.90;1.00
6740;DHT22;3407;49.882;10.920;2023-06-22T06:31:44;26.00;99.90
6740;DHT22;3407;49.882;10.920;2023-06-22T06:36:40;26.20;99.90
6740;DHT22;3407;49.882;10.920;2023-06-22T06:41:35;26.30;99.90
6740;DHT22;3407;49.882;10.920;2023-06-22T06:46:31;26.30;99.90
6740;DHT22;3407;49.882;10.920;2023-06-22T06:51:26;26.40;99.90
6740;DHT22;3407;49.882;10.920;2023-06-22T06:56:22;26.80;99.90
6740;DHT22;3407;49.882;10.920;2023-06-22T07:01:17;26.90;99.90
6740;DHT22;3407;49.882;10.920;2023-06-22T07:06:13;26.90;99.90
6740;DHT22;3407;49.882;10.920;2023-06-22T07:11:09;27.10;99.90
6740;DHT22;3407;49.882;10.920;2023-06-22T07:16:04;27.30;99.90
6740;DHT22;3407;49.882;10.920;2023-06-22T07:21:00;27.80;99.90
6740;DHT22;3407;49.882;10.920;2023-06-22T07:25:55;28.30;99.90
6740;DHT22;3407;49.882;10.920;2023-06-22T07:30:51;28.70;99.90
6740;DHT22;3407;49.882;10.920;2023-06-22T07:35:47;29.20;99.90
6740;DHT22;3407;49.882;10.920;2023-06-22T07:40:43;29.40;99.90
6740;DHT22;3407;49.882;10.920;2023-06-22T07:45:39;29.40;99.90
6740;DHT22;3407;49.882;10.920;2023-06-22T07:50:35;29.70;99.90
6740;DHT22;3407;49.882;10.920;2023-06-22T07:55:31;29.30;99.90
6740;DHT22;3407;49.882;10.920;2023-06-22T08:00:26;29.50;99.90
6740;DHT22;3407;49.882;10.920;2023-06-22T08:05:22;29.40;99.90
6740;DHT22;3407;49.882;10.920;2023-06-22T08:10:19;29.50;99.90
6740;DHT22;3407;49.882;10.920;2023-06-22T08:15:14;30.00;99.90
6740;DHT22;3407;49.882;10.920;2023-06-22T08:20:10;30.20;99.90
6740;DHT22;3407;49.882;10.920;2023-06-22T08:25:10;30.80;99.90
6740;DHT22;3407;49.882;10.920;2023-06-22T08:30:07;31.20;99.90
6740;DHT22;3407;49.882;10.920;2023-06-22T08:35:02;31.80;99.90
6740;DHT22;3407;49.882;10.920;2023-06-22T08:39:59;32.10;99.90
6740;DHT22;3407;49.882;10.920;2023-06-22T08:44:55;32.00;99.90
6740;DHT22;3407;49.882;10.920;2023-06-22T08:49:51;32.10;99.90
6740;DHT22;3407;49.882;10.920;2023-06-22T08:54:49;32.70;99.90
6740;DHT22;3407;49.882;10.920;2023-06-22T08:59:44;33.20;94.60
6740;DHT22;3407;49.882;10.920;2023-06-22T09:04:40;32.90;89.20
6740;DHT22;3407;49.882;10.920;2023-06-22T09:09:36;32.70;87.90
6740;DHT22;3407;49.882;10.920;2023-06-22T09:14:32;32.30;83.70
6740;DHT22;3407;49.882;10.920;2023-06-22T09:19:27;32.50;84.80
6740;DHT22;3407;49.882;10.920;2023-06-22T09:24:23;33.50;87.40
6740;DHT22;3407;49.882;10.920;2023-06-22T09:29:18;34.20;64.90
6740;DHT22;3407;49.882;10.920;2023-06-22T09:34:14;34.20;61.50
6740;DHT22;3407;49.882;10.920;2023-06-22T09:39:09;34.10;57.80
6740;DHT22;3407;49.882;10.920;2023-06-22T09:44:05;34.50;56.80
6740;DHT22;3407;49.882;10.920;2023-06-22T09:49:00;35.50;49.60
6740;DHT22;3407;49.882;10.920;2023-06-22T09:53:56;36.40;45.10
6740;DHT22;3407;49.882;10.920;2023-06-22T09:58:51;36.90;37.60
6740;DHT22;3407;49.882;10.920;2023-06-22T10:03:48;37.10;32.50
6740;DHT22;3407;49.882;10.920;2023-06-22T10:08:43;37.10;29.40
6740;DHT22;3407;49.882;10.920;2023-06-22T10:13:39;36.90;26.20
6740;DHT22;3407;49.882;10.920;2023-06-22T10:18:34;37.10;28.10
6740;DHT22;3407;49.882;10.920;2023-06-22T10:23:30;38.90;24.80
6740;DHT22;3407;49.882;10.920;2023-06-22T10:28:25;40.20;21.20
6740;DHT22;3407;49.882;10.920;2023-06-22T10:33:21;40.40;19.00
6740;DHT22;3407;49.882;10.920;2023-06-22T10:38:16;40.90;15.10
6740;DHT22;3407;49.882;10.920;2023-06-22T10:43:12;41.50;14.10
6740;DHT22;3407;49.882;10.920;2023-06-22T10:48:07;42.60;10.80
6740;DHT22;3407;49.882;10.920;2023-06-22T10:53:03;43.50;24.70
6740;DHT22;3407;49.882;10.920;2023-06-22T10:57:58;43.80;7.00
6740;DHT22;3407;49.882;10.920;2023-06-22T11:02:54;43.90;4.30
6740;DHT22;3407;49.882;10.920;2023-06-22T11:07:49;42.10;4.00
6740;DHT22;3407;49.882;10.920;2023-06-22T11:12:45;43.20;4.80
6740;DHT22;3407;49.882;10.920;2023-06-22T11:17:41;43.40;1.00
6740;DHT22;3407;49.882;10.920;2023-06-22T11:22:38;43.30;1.00
6740;DHT22;3407;49.882;10.920;2023-06-22T11:27:34;43.60;1.00
6740;DHT22;3407;49.882;10.920;2023-06-22T11:32:30;43.50;1.00
6740;DHT22;3407;49.882;10.920;2023-06-22T11:37:25;42.30;1.00
6740;DHT22;3407;49.882;10.920;2023-06-22T11:42:21;41.60;1.00
6740;DHT22;3407;49.882;10.920;2023-06-22T11:47:18;39.80;1.00
6740;DHT22;3407;49.882;10.920;2023-06-22T11:52:14;37.60;1.00
6740;DHT22;3407;49.882;10.920;2023-06-22T11:57:10;37.90;1.00
6740;DHT22;3407;49.882;10.920;2023-06-22T12:02:05;37.40;1.00
6740;DHT22;3407;49.882;10.920;2023-06-22T12:07:02;38.40;1.00
6740;DHT22;3407;49.882;10.920;2023-06-22T12:11:58;38.30;1.00
6740;DHT22;3407;49.882;10.920;2023-06-22T12:16:54;37.80;1.00
6740;DHT22;3407;49.882;10.920;2023-06-22T12:21:49;37.10;1.00
6740;DHT22;3407;49.882;10.920;2023-06-22T12:26:45;38.00;1.00
6740;DHT22;3407;49.882;10.920;2023-06-22T12:31:40;38.40;1.00
6740;DHT22;3407;49.882;10.920;2023-06-22T12:36:36;37.10;1.00
6740;DHT22;3407;49.882;10.920;2023-06-22T12:41:32;36.10;1.00
6740;DHT22;3407;49.882;10.920;2023-06-22T12:46:28;35.60;4.50
6740;DHT22;3407;49.882;10.920;2023-06-22T12:51:24;37.20;1.00
6740;DHT22;3407;49.882;10.920;2023-06-22T12:56:19;38.40;1.00
6740;DHT22;3407;49.882;10.920;2023-06-22T13:01:15;39.50;1.00
6740;DHT22;3407;49.882;10.920;2023-06-22T13:06:11;40.40;1.00
6740;DHT22;3407;49.882;10.920;2023-06-22T13:11:07;39.10;1.00
6740;DHT22;3407;49.882;10.920;2023-06-22T13:16:02;37.20;1.00
6740;DHT22;3407;49.882;10.920;2023-06-22T13:20:58;36.40;1.10
6740;DHT22;3407;49.882;10.920;2023-06-22T13:25:55;35.70;2.20
6740;DHT22;3407;49.882;10.920;2023-06-22T13:30:51;34.90;5.40
6740;DHT22;3407;49.882;10.920;2023-06-22T13:35:46;34.70;5.30
6740;DHT22;3407;49.882;10.920;2023-06-22T13:40:42;35.10;7.20
6740;DHT22;3407;49.882;10.920;2023-06-22T13:45:37;35.40;7.70
6740;DHT22;3407;49.882;10.920;2023-06-22T13:50:33;35.30;6.90
6740;DHT22;3407;49.882;10.920;2023-06-22T13:55:28;35.20;7.20
6740;DHT22;3407;49.882;10.920;2023-06-22T14:00:24;35.00;7.80
6740;DHT22;3407;49.882;10.920;2023-06-22T14:05:20;34.70;8.40
6740;DHT22;3407;49.882;10.920;2023-06-22T14:10:15;34.40;10.50
6740;DHT22;3407;49.882;10.920;2023-06-22T14:15:11;34.00;8.80
6740;DHT22;3407;49.882;10.920;2023-06-22T14:20:07;33.90;11.10
6740;DHT22;3407;49.882;10.920;2023-06-22T14:25:05;34.20;9.90
6740;DHT22;3407;49.882;10.920;2023-06-22T14:30:00;34.20;9.90
6740;DHT22;3407;49.882;10.920;2023-06-22T14:34:56;34.30;8.60
6740;DHT22;3407;49.882;10.920;2023-06-22T14:39:51;34.30;8.40
6740;DHT22;3407;49.882;10.920;2023-06-22T14:44:47;34.20;6.30
6740;DHT22;3407;49.882;10.920;2023-06-22T14:49:44;34.00;7.60
6740;DHT22;3407;49.882;10.920;2023-06-22T14:54:39;34.00;9.30
6740;DHT22;3407;49.882;10.920;2023-06-22T14:59:35;33.90;7.70
6740;DHT22;3407;49.882;10.920;2023-06-22T15:04:30;33.80;7.60
6740;DHT22;3407;49.882;10.920;2023-06-22T15:09:30;33.70;9.20
6740;DHT22;3407;49.882;10.920;2023-06-22T15:14:25;33.60;9.40
6740;DHT22;3407;49.882;10.920;2023-06-22T15:19:21;33.50;11.20
6740;DHT22;3407;49.882;10.920;2023-06-22T15:24:16;33.50;10.30
6740;DHT22;3407;49.882;10.920;2023-06-22T15:29:12;33.30;10.60
6740;DHT22;3407;49.882;10.920;2023-06-22T15:34:07;33.20;10.20
6740;DHT22;3407;49.882;10.920;2023-06-22T15:39:03;33.20;11.50
6740;DHT22;3407;49.882;10.920;2023-06-22T15:43:58;33.20;12.80
6740;DHT22;3407;49.882;10.920;2023-06-22T15:48:54;33.10;10.50
6740;DHT22;3407;49.882;10.920;2023-06-22T15:53:50;33.00;9.40
6740;DHT22;3407;49.882;10.920;2023-06-22T15:58:45;32.90;8.10
6740;DHT22;3407;49.882;10.920;2023-06-22T16:03:41;32.80;9.30
6740;DHT22;3407;49.882;10.920;2023-06-22T16:08:36;32.70;10.90
6740;DHT22;3407;49.882;10.920;2023-06-22T16:13:32;32.60;10.90
6740;DHT22;3407;49.882;10.920;2023-06-22T16:18:27;32.60;12.60
6740;DHT22;3407;49.882;10.920;2023-06-22T16:23:23;32.40;12.20
6740;DHT22;3407;49.882;10.920;2023-06-22T16:28:19;32.40;12.80
6740;DHT22;3407;49.882;10.920;2023-06-22T16:33:14;32.20;12.60
6740;DHT22;3407;49.882;10.920;2023-06-22T16:38:10;32.20;14.20
6740;DHT22;3407;49.882;10.920;2023-06-22T16:43:05;32.30;29.20
6740;DHT22;3407;49.882;10.920;2023-06-22T16:48:01;32.50;13.70
6740;DHT22;3407;49.882;10.920;2023-06-22T16:52:56;32.40;14.40
6740;DHT22;3407;49.882;10.920;2023-06-22T16:57:52;32.30;17.40
6740;DHT22;3407;49.882;10.920;2023-06-22T17:02:49;32.30;17.00
6740;DHT22;3407;49.882;10.920;2023-06-22T17:07:52;32.20;18.30
6740;DHT22;3407;49.882;10.920;2023-06-22T17:12:48;32.30;19.10
6740;DHT22;3407;49.882;10.920;2023-06-22T17:17:44;32.40;18.60
6740;DHT22;3407;49.882;10.920;2023-06-22T17:22:40;32.50;18.50
6740;DHT22;3407;49.882;10.920;2023-06-22T17:27:39;32.40;20.30
6740;DHT22;3407;49.882;10.920;2023-06-22T17:32:35;32.20;20.60
6740;DHT22;3407;49.882;10.920;2023-06-22T17:37:49;32.10;22.90
6740;DHT22;3407;49.882;10.920;2023-06-22T17:42:45;31.80;22.30
6740;DHT22;3407;49.882;10.920;2023-06-22T17:47:45;31.60;24.20
6740;DHT22;3407;49.882;10.920;2023-06-22T17:52:41;31.30;25.90
6740;DHT22;3407;49.882;10.920;2023-06-22T17:57:37;31.10;28.30
6740;DHT22;3407;49.882;10.920;2023-06-22T18:02:42;30.90;28.80
6740;DHT22;3407;49.882;10.920;2023-06-22T18:07:38;30.60;30.70
6740;DHT22;3407;49.882;10.920;2023-06-22T18:12:34;30.40;31.00
6740;DHT22;3407;49.882;10.920;2023-06-22T18:17:30;30.20;33.30
6740;DHT22;3407;49.882;10.920;2023-06-22T18:22:26;30.10;35.30
6740;DHT22;3407;49.882;10.920;2023-06-22T18:27:22;30.00;33.90
6740;DHT22;3407;49.882;10.920;2023-06-22T18:32:19;29.90;33.00
6740;DHT22;3407;49.882;10.920;2023-06-22T18:37:15;29.80;31.10
6740;DHT22;3407;49.882;10.920;2023-06-22T18:42:11;29.70;30.80
6740;DHT22;3407;49.882;10.920;2023-06-22T18:47:10;29.70;32.00
6740;DHT22;3407;49.882;10.920;2023-06-22T19:02:42;29.00;30.70
6740;DHT22;3407;49.882;10.920;2023-06-22T19:12:53;28.70;40.70
6740;DHT22;3407;49.882;10.920;2023-06-22T19:17:49;28.50;53.30
6740;DHT22;3407;49.882;10.920;2023-06-22T19:22:54;26.50;99.90
6740;DHT22;3407;49.882;10.920;2023-06-22T19:27:51;24.40;1.00
6740;DHT22;3407;49.882;10.920;2023-06-22T19:32:48;23.00;1.00
6740;DHT22;3407;49.882;10.920;2023-06-22T19:37:45;22.40;10.80
6740;DHT22;3407;49.882;10.920;2023-06-22T19:42:43;22.20;31.40
6740;DHT22;3407;49.882;10.920;2023-06-22T19:47:38;21.80;8.90
6740;DHT22;3407;49.882;10.920;2023-06-22T19:52:39;21.50;23.70
6740;DHT22;3407;49.882;10.920;2023-06-22T19:57:36;21.30;32.80
6740;DHT22;3407;49.882;10.920;2023-06-22T20:02:32;21.00;25.10
6740;DHT22;3407;49.882;10.920;2023-06-22T20:07:37;21.00;61.60
6740;DHT22;3407;49.882;10.920;2023-06-22T20:12:33;21.00;65.80
6740;DHT22;3407;49.882;10.920;2023-06-22T20:17:29;20.90;65.10
6740;DHT22;3407;49.882;10.920;2023-06-22T20:22:28;21.00;77.20
6740;DHT22;3407;49.882;10.920;2023-06-22T20:27:25;21.10;77.70
6740;DHT22;3407;49.882;10.920;2023-06-22T20:32:20;21.00;69.00
6740;DHT22;3407;49.882;10.920;2023-06-22T20:37:17;20.80;75.00
6740;DHT22;3407;49.882;10.920;2023-06-22T20:42:17;21.00;88.10
6740;DHT22;3407;49.882;10.920;2023-06-22T20:47:13;21.30;91.50
6740;DHT22;3407;49.882;10.920;2023-06-22T20:52:08;21.40;91.10
6740;DHT22;3407;49.882;10.920;2023-06-22T20:57:04;21.30;90.60
6740;DHT22;3407;49.882;10.920;2023-06-22T21:02:00;21.20;89.80
6740;DHT22;3407;49.882;10.920;2023-06-22T21:06:55;21.20;92.30
6740;DHT22;3407;49.882;10.920;2023-06-22T21:11:51;21.10;91.40
6740;DHT22;3407;49.882;10.920;2023-06-22T21:16:46;21.00;91.20
6740;DHT22;3407;49.882;10.920;2023-06-22T21:21:42;20.90;89.00
6740;DHT22;3407;49.882;10.920;2023-06-22T21:26:38;20.70;90.60
6740;DHT22;3407;49.882;10.920;2023-06-22T21:31:33;20.80;94.10
6740;DHT22;3407;49.882;10.920;2023-06-22T21:36:29;20.90;95.00
6740;DHT22;3407;49.882;10.920;2023-06-22T21:41:24;20.70;92.60
6740;DHT22;3407;49.882;10.920;2023-06-22T21:46:21;20.50;93.10
6740;DHT22;3407;49.882;10.920;2023-06-22T21:51:16;20.50;93.90
6740;DHT22;3407;49.882;10.920;2023-06-22T21:56:12;20.40;94.30
6740;DHT22;3407;49.882;10.920;2023-06-22T22:01:07;20.50;95.70
6740;DHT22;3407;49.882;10.920;2023-06-22T22:06:03;20.60;96.60
6740;DHT22;3407;49.882;10.920;2023-06-22T22:10:59;20.60;95.90
6740;DHT22;3407;49.882;10.920;2023-06-22T22:15:54;20.70;96.50
6740;DHT22;3407;49.882;10.920;2023-06-22T22:20:50;20.60;95.30
6740;DHT22;3407;49.882;10.920;2023-06-22T22:25:46;20.70;97.10
6740;DHT22;3407;49.882;10.920;2023-06-22T22:30:41;20.70;97.50
6740;DHT22;3407;49.882;10.920;2023-06-22T22:35:37;20.70;96.40
6740;DHT22;3407;49.882;10.920;2023-06-22T22:40:32;20.50;95.80
6740;DHT22;3407;49.882;10.920;2023-06-22T22:45:28;20.60;97.00
6740;DHT22;3407;49.882;10.920;2023-06-22T22:50:24;20.70;97.40
6740;DHT22;3407;49.882;10.920;2023-06-22T22:55:20;20.60;97.30
6740;DHT22;3407;49.882;10.920;2023-06-22T23:00:17;20.50;94.90
6740;DHT22;3407;49.882;10.920;2023-06-22T23:05:13;20.40;95.20
6740;DHT22;3407;49.882;10.920;2023-06-22T23:10:09;20.50;97.10
6740;DHT22;3407;49.882;10.920;2023-06-22T23:15:07;20.60;97.40
6740;DHT22;3407;49.882;10.920;2023-06-22T23:20:03;20.40;95.40
6740;DHT22;3407;49.882;10.920;2023-06-22T23:24:59;20.50;96.40
6740;DHT22;3407;49.882;10.920;2023-06-22T23:29:54;20.50;96.50
6740;DHT22;3407;49.882;10.920;2023-06-22T23:34:50;20.60;96.80
6740;DHT22;3407;49.882;10.920;2023-06-22T23:39:45;20.50;96.10
6740;DHT22;3407;49.882;10.920;2023-06-22T23:44:41;20.60;96.40
6740;DHT22;3407;49.882;10.920;2023-06-22T23:49:36;20.60;96.70
6740;DHT22;3407;49.882;10.920;2023-06-22T23:54:32;20.60;96.30
6740;DHT22;3407;49.882;10.920;2023-06-22T23:59:27;20.60;96.40
